createdAt,value
2022-12-25T00:00:32.506Z,100.00
2022-12-25T00:03:22.962Z,100.00
2022-12-25T00:05:54.696Z,100.00
2022-12-25T00:08:24.990Z,99.93
2022-12-25T00:11:02.581Z,99.98
2022-12-25T00:13:34.362Z,100.00
2022-12-25T00:16:10.573Z,100.00
2022-12-25T00:18:42.317Z,99.68
2022-12-25T00:21:15.444Z,99.53
2022-12-25T00:23:47.426Z,99.01
2022-12-25T00:26:20.141Z,98.48
2022-12-25T00:28:54.716Z,98.48
2022-12-25T00:31:27.383Z,98.56
2022-12-25T00:33:59.116Z,98.52
2022-12-25T00:36:29.238Z,98.50
2022-12-25T00:39:00.885Z,99.14
2022-12-25T00:41:49.845Z,98.97
2022-12-25T00:44:21.526Z,98.98
2022-12-25T00:46:51.713Z,98.95
2022-12-25T00:49:24.936Z,99.06
2022-12-25T00:51:56.704Z,99.41
2022-12-25T00:54:28.411Z,99.41
2022-12-25T00:57:00.096Z,98.77
2022-12-25T00:59:35.056Z,98.14
2022-12-25T01:02:25.400Z,98.05
2022-12-25T01:04:57.985Z,98.60
2022-12-25T01:07:29.848Z,98.29
2022-12-25T01:10:18.981Z,97.64
2022-12-25T01:12:52.282Z,97.56
2022-12-25T01:15:24.039Z,97.52
2022-12-25T01:17:55.762Z,97.20
2022-12-25T01:20:27.430Z,97.77
2022-12-25T01:22:57.541Z,97.92
2022-12-25T01:25:29.219Z,97.46
2022-12-25T01:27:59.395Z,97.31
2022-12-25T01:30:31.694Z,97.44
2022-12-25T01:33:03.486Z,97.43
2022-12-25T01:35:33.622Z,98.05
2022-12-25T01:38:05.347Z,98.56
2022-12-25T01:40:36.066Z,98.71
2022-12-25T01:43:18.561Z,98.92
2022-12-25T01:45:52.574Z,99.16
2022-12-25T01:48:28.595Z,99.08
2022-12-25T01:51:03.317Z,98.97
2022-12-25T01:53:35.396Z,99.27
2022-12-25T01:56:10.466Z,99.81
2022-12-25T01:58:42.954Z,99.78
2022-12-25T02:01:14.703Z,99.33
2022-12-25T02:03:46.926Z,99.54
2022-12-25T02:06:18.553Z,99.69
2022-12-25T02:08:48.781Z,99.73
2022-12-25T02:11:34.417Z,99.86
2022-12-25T02:14:06.114Z,99.38
2022-12-25T02:16:57.414Z,99.55
2022-12-25T02:19:53.491Z,99.71
2022-12-25T02:22:37.180Z,99.90
2022-12-25T02:25:22.569Z,99.88
2022-12-25T02:28:08.922Z,99.99
2022-12-25T02:30:45.551Z,99.83
2022-12-25T02:33:40.074Z,99.99
2022-12-25T02:36:19.638Z,100.00
2022-12-25T02:39:14.248Z,99.80
2022-12-25T02:41:49.944Z,99.89
2022-12-25T02:44:41.860Z,99.79
2022-12-25T02:47:45.876Z,99.91
2022-12-25T02:50:36.889Z,99.66
2022-12-25T02:53:29.903Z,99.90
2022-12-25T02:56:19.677Z,99.92
2022-12-25T02:59:09.727Z,100.00
2022-12-25T03:02:00.936Z,100.00
2022-12-25T03:04:51.510Z,100.00
2022-12-25T03:07:26.710Z,100.00
2022-12-25T03:10:19.984Z,100.00
2022-12-25T03:12:54.595Z,99.74
2022-12-25T03:15:44.164Z,99.54
2022-12-25T03:18:19.128Z,99.40
2022-12-25T03:21:08.763Z,99.46
2022-12-25T03:24:01.125Z,99.40
2022-12-25T03:26:51.912Z,99.34
2022-12-25T03:29:41.715Z,99.19
2022-12-25T03:32:26.340Z,99.47
2022-12-25T03:35:25.362Z,99.49
2022-12-25T03:38:39.737Z,99.76
2022-12-25T03:41:50.754Z,99.94
2022-12-25T03:44:44.591Z,99.45
2022-12-25T03:47:38.828Z,99.73
2022-12-25T03:50:35.050Z,99.56
2022-12-25T03:53:29.225Z,99.80
2022-12-25T03:56:19.020Z,99.75
2022-12-25T03:59:17.803Z,99.80
2022-12-25T04:02:16.140Z,99.88
2022-12-25T04:05:05.367Z,99.80
2022-12-25T04:07:54.269Z,99.97
2022-12-25T04:10:44.200Z,99.93
2022-12-25T04:13:33.931Z,99.54
2022-12-25T04:16:23.752Z,99.19
2022-12-25T04:19:12.963Z,98.95
2022-12-25T04:22:01.982Z,98.95
2022-12-25T04:24:51.275Z,99.04
2022-12-25T04:27:41.128Z,99.23
2022-12-25T04:30:31.457Z,99.08
2022-12-25T04:33:20.578Z,99.10
2022-12-25T04:36:15.279Z,98.98
2022-12-25T04:38:46.935Z,99.26
2022-12-25T04:41:18.668Z,99.22
2022-12-25T04:43:48.776Z,99.42
2022-12-25T04:46:20.429Z,99.64
2022-12-25T04:48:50.639Z,99.80
2022-12-25T04:51:24.612Z,99.69
2022-12-25T04:53:56.989Z,99.98
2022-12-25T04:56:28.644Z,99.94
2022-12-25T04:58:58.796Z,99.73
2022-12-25T05:01:30.556Z,99.67
2022-12-25T05:04:02.281Z,99.80
2022-12-25T05:06:32.450Z,99.68
2022-12-25T05:09:04.230Z,100.00
2022-12-25T05:11:35.862Z,99.98
2022-12-25T05:14:06.051Z,99.74
2022-12-25T05:16:38.234Z,99.84
2022-12-25T05:19:09.920Z,99.94
2022-12-25T05:21:41.776Z,99.67
2022-12-25T05:24:11.925Z,99.52
2022-12-25T05:26:45.482Z,99.47
2022-12-25T05:29:17.910Z,99.43
2022-12-25T05:31:48.069Z,99.42
2022-12-25T05:34:19.695Z,99.55
2022-12-25T05:36:49.836Z,99.79
2022-12-25T05:39:21.695Z,99.75
2022-12-25T05:41:53.308Z,100.00
2022-12-25T05:44:23.642Z,99.71
2022-12-25T05:46:55.304Z,99.87
2022-12-25T05:49:27.092Z,99.64
2022-12-25T05:51:58.809Z,99.63
2022-12-25T05:54:28.933Z,99.74
2022-12-25T05:57:00.664Z,99.76
2022-12-25T05:59:33.679Z,99.81
2022-12-25T06:02:05.352Z,99.40
2022-12-25T06:04:35.488Z,99.20
2022-12-25T06:07:07.195Z,99.29
2022-12-25T06:09:37.269Z,99.28
2022-12-25T06:12:09.663Z,99.50
2022-12-25T06:14:41.324Z,99.41
2022-12-25T06:17:11.587Z,99.07
2022-12-25T06:19:44.492Z,99.36
2022-12-25T06:22:16.154Z,99.34
2022-12-25T06:24:47.917Z,99.27
2022-12-25T06:27:18.035Z,99.42
2022-12-25T06:29:49.659Z,98.97
2022-12-25T06:32:19.872Z,99.10
2022-12-25T06:34:51.643Z,99.27
2022-12-25T06:37:23.275Z,98.96
2022-12-25T06:39:53.419Z,99.09
2022-12-25T06:42:24.996Z,99.51
2022-12-25T06:44:55.135Z,99.51
2022-12-25T06:47:26.769Z,99.50
2022-12-25T06:49:56.930Z,99.01
2022-12-25T06:52:28.661Z,98.95
2022-12-25T06:55:00.533Z,99.15
2022-12-25T06:57:32.471Z,98.88
2022-12-25T07:00:04.810Z,98.70
2022-12-25T07:02:38.587Z,98.85
2022-12-25T07:05:11.218Z,98.91
2022-12-25T07:07:42.807Z,98.92
2022-12-25T07:10:14.790Z,99.13
2022-12-25T07:12:46.456Z,99.30
2022-12-25T07:15:16.559Z,99.34
2022-12-25T07:17:48.136Z,99.75
2022-12-25T07:20:18.257Z,99.80
2022-12-25T07:22:49.921Z,99.75
2022-12-25T07:25:20.065Z,99.75
2022-12-25T07:27:51.686Z,99.54
2022-12-25T07:30:21.833Z,99.54
2022-12-25T07:32:53.444Z,99.88
2022-12-25T07:35:23.550Z,99.81
2022-12-25T07:37:55.755Z,99.96
2022-12-25T07:40:27.393Z,99.85
2022-12-25T07:42:57.519Z,99.43
2022-12-25T07:45:29.291Z,99.47
2022-12-25T07:48:05.236Z,99.50
2022-12-25T07:50:38.001Z,99.56
2022-12-25T07:53:09.718Z,99.39
2022-12-25T07:55:41.405Z,99.56
2022-12-25T07:58:11.533Z,99.53
2022-12-25T08:00:43.148Z,99.93
2022-12-25T08:03:15.351Z,99.97
2022-12-25T08:05:47.663Z,99.83
2022-12-25T08:08:19.303Z,100.00
2022-12-25T08:10:49.439Z,100.00
2022-12-25T08:13:21.125Z,100.00
2022-12-25T08:15:51.281Z,100.00
2022-12-25T08:18:29.397Z,100.00
2022-12-25T08:21:05.689Z,100.00
2022-12-25T08:23:39.736Z,100.00
2022-12-25T08:26:14.848Z,99.95
2022-12-25T08:28:46.985Z,99.89
2022-12-25T08:31:20.280Z,99.43
2022-12-25T08:33:54.016Z,99.39
2022-12-25T08:36:26.182Z,98.90
2022-12-25T08:39:02.548Z,98.90
2022-12-25T08:41:36.426Z,98.96
2022-12-25T08:44:08.752Z,98.83
2022-12-25T08:46:40.738Z,99.13
2022-12-25T08:49:12.496Z,99.30
2022-12-25T08:51:42.634Z,98.82
2022-12-25T08:54:14.303Z,99.06
2022-12-25T08:56:44.412Z,99.02
2022-12-25T08:59:16.031Z,99.47
2022-12-25T09:01:46.256Z,99.41
2022-12-25T09:04:18.030Z,99.19
2022-12-25T09:06:50.292Z,99.52
2022-12-25T09:09:22.050Z,99.39
2022-12-25T09:11:52.149Z,99.54
2022-12-25T09:14:23.824Z,99.68
2022-12-25T09:16:53.932Z,99.70
2022-12-25T09:19:25.589Z,99.49
2022-12-25T09:21:55.742Z,98.83
2022-12-25T09:24:27.424Z,98.65
2022-12-25T09:26:59.016Z,98.86
2022-12-25T09:29:29.140Z,98.56
2022-12-25T09:32:00.810Z,98.51
2022-12-25T09:34:32.621Z,98.39
2022-12-25T09:37:04.420Z,97.86
2022-12-25T09:39:39.417Z,98.43
2022-12-25T09:42:20.173Z,98.44
2022-12-25T09:44:56.461Z,98.84
2022-12-25T09:47:30.134Z,98.60
2022-12-25T09:50:12.293Z,98.04
2022-12-25T09:52:49.654Z,97.82
2022-12-25T09:55:24.172Z,97.67
2022-12-25T09:57:58.355Z,97.94
2022-12-25T10:00:41.761Z,97.56
2022-12-25T10:03:35.883Z,97.34
2022-12-25T10:06:19.002Z,97.75
2022-12-25T10:09:18.429Z,98.04
2022-12-25T10:11:59.954Z,98.07
2022-12-25T10:14:36.049Z,98.05
2022-12-25T10:17:25.323Z,97.76
2022-12-25T10:20:05.667Z,97.89
2022-12-25T10:22:42.579Z,97.76
2022-12-25T10:25:19.460Z,97.60
2022-12-25T10:27:55.729Z,97.44
2022-12-25T10:30:29.845Z,97.47
2022-12-25T10:33:01.560Z,97.03
2022-12-25T10:35:33.462Z,97.01
2022-12-25T10:38:12.172Z,97.62
2022-12-25T10:41:01.228Z,97.91
2022-12-25T10:43:38.924Z,97.85
2022-12-25T10:46:15.408Z,97.78
2022-12-25T10:48:51.335Z,97.48
2022-12-25T10:51:35.818Z,97.32
2022-12-25T10:54:23.427Z,97.38
2022-12-25T10:57:00.766Z,97.05
2022-12-25T10:59:36.902Z,96.81
2022-12-25T11:02:19.684Z,96.59
2022-12-25T11:04:52.627Z,96.42
2022-12-25T11:07:27.130Z,96.42
2022-12-25T11:10:05.337Z,96.27
2022-12-25T11:12:43.377Z,96.49
2022-12-25T11:15:34.849Z,96.21
2022-12-25T11:18:18.609Z,96.37
2022-12-25T11:20:55.488Z,96.28
2022-12-25T11:23:29.935Z,96.53
2022-12-25T11:26:03.640Z,96.72
2022-12-25T11:28:37.926Z,96.64
2022-12-25T11:31:13.464Z,96.57
2022-12-25T11:33:51.684Z,96.46
2022-12-25T11:36:41.151Z,96.03
2022-12-25T11:39:21.258Z,95.95
2022-12-25T11:41:56.207Z,96.11
2022-12-25T11:44:47.029Z,96.07
2022-12-25T11:47:26.689Z,96.01
2022-12-25T11:50:05.200Z,95.96
2022-12-25T11:52:39.831Z,95.90
2022-12-25T11:55:24.195Z,96.09
2022-12-25T11:58:02.411Z,95.88
2022-12-25T12:00:37.726Z,95.66
2022-12-25T12:03:19.510Z,95.70
2022-12-25T12:05:59.063Z,95.90
2022-12-25T12:08:31.491Z,95.83
2022-12-25T12:11:19.022Z,95.64
2022-12-25T12:14:16.050Z,95.68
2022-12-25T12:16:48.294Z,95.56
2022-12-25T12:19:28.704Z,95.63
2022-12-25T12:22:02.835Z,95.73
2022-12-25T12:24:40.006Z,95.93
2022-12-25T12:27:28.964Z,95.96
2022-12-25T12:30:02.062Z,96.11
2022-12-25T12:32:41.885Z,96.03
2022-12-25T12:35:19.170Z,95.70
2022-12-25T12:37:54.581Z,95.46
2022-12-25T12:40:34.758Z,95.36
2022-12-25T12:43:09.271Z,95.64
2022-12-25T12:45:40.979Z,96.16
2022-12-25T12:48:25.993Z,96.26
2022-12-25T12:51:07.083Z,96.09
2022-12-25T12:53:40.130Z,96.09
2022-12-25T12:56:18.042Z,96.14
2022-12-25T12:58:51.295Z,95.97
2022-12-25T13:01:39.582Z,95.98
2022-12-25T13:04:40.527Z,96.12
2022-12-25T13:07:32.183Z,96.59
2022-12-25T13:10:14.680Z,96.80
2022-12-25T13:12:47.015Z,96.38
2022-12-25T13:15:19.760Z,96.18
2022-12-25T13:17:51.689Z,95.97
2022-12-25T13:20:30.763Z,96.06
2022-12-25T13:23:02.496Z,96.22
2022-12-25T13:25:34.131Z,96.14
2022-12-25T13:28:04.880Z,96.10
2022-12-25T13:30:36.665Z,96.11
2022-12-25T13:33:17.373Z,95.85
2022-12-25T13:35:49.553Z,95.68
2022-12-25T13:38:23.254Z,95.62
2022-12-25T13:41:14.841Z,95.39
2022-12-25T13:43:49.829Z,95.44
2022-12-25T13:46:27.944Z,95.32
2022-12-25T13:49:02.368Z,95.31
2022-12-25T13:51:35.024Z,95.26
2022-12-25T13:54:07.982Z,95.21
2022-12-25T13:56:46.344Z,95.04
2022-12-25T13:59:20.447Z,94.91
2022-12-25T14:01:54.257Z,94.97
2022-12-25T14:04:26.989Z,94.82
2022-12-25T14:07:09.511Z,94.97
2022-12-25T14:09:41.713Z,94.92
2022-12-25T14:12:19.114Z,94.97
2022-12-25T14:14:53.362Z,95.26
2022-12-25T14:17:25.546Z,95.47
2022-12-25T14:20:07.824Z,95.40
2022-12-25T14:22:41.363Z,95.31
2022-12-25T14:25:18.193Z,95.38
2022-12-25T14:27:53.603Z,94.84
2022-12-25T14:30:28.609Z,94.44
2022-12-25T14:33:02.594Z,94.39
2022-12-25T14:35:34.432Z,94.66
2022-12-25T14:38:16.787Z,94.62
2022-12-25T14:40:48.441Z,94.53
2022-12-25T14:43:24.603Z,94.13
2022-12-25T14:45:59.733Z,94.44
2022-12-25T14:48:40.775Z,94.16
2022-12-25T14:51:21.818Z,94.35
2022-12-25T14:53:59.936Z,93.84
2022-12-25T14:56:48.970Z,94.03
2022-12-25T14:59:29.885Z,94.61
2022-12-25T15:02:22.530Z,94.59
2022-12-25T15:04:58.561Z,94.69
2022-12-25T15:07:45.821Z,94.95
2022-12-25T15:13:21.398Z,94.69
2022-12-25T15:16:06.809Z,94.55
2022-12-25T15:18:41.384Z,94.44
2022-12-25T15:21:27.583Z,94.18
2022-12-25T15:24:00.728Z,94.12
2022-12-25T15:26:37.551Z,93.66
2022-12-25T15:29:27.589Z,93.72
2022-12-25T15:32:20.591Z,93.83
2022-12-25T15:34:53.860Z,93.73
2022-12-25T15:37:25.587Z,93.21
2022-12-25T15:39:57.680Z,92.83
2022-12-25T15:42:56.436Z,92.59
2022-12-25T15:45:40.103Z,92.47
2022-12-25T15:48:26.282Z,92.60
2022-12-25T15:51:20.203Z,92.87
2022-12-25T15:54:01.721Z,93.32
2022-12-25T15:56:48.942Z,93.38
2022-12-25T15:59:34.404Z,93.55
2022-12-25T16:02:19.795Z,94.18
2022-12-25T16:05:29.955Z,94.45
2022-12-25T16:08:18.582Z,94.42
2022-12-25T16:11:04.668Z,94.34
2022-12-25T16:13:41.826Z,93.62
2022-12-25T16:16:22.664Z,93.68
2022-12-25T16:18:56.874Z,94.07
2022-12-25T16:21:27.291Z,94.18
2022-12-25T16:23:59.587Z,94.33
2022-12-25T16:26:33.229Z,94.40
2022-12-25T16:29:07.397Z,94.61
2022-12-25T16:31:40.488Z,94.07
2022-12-25T16:34:12.638Z,92.88
2022-12-25T16:36:44.686Z,92.73
2022-12-25T16:39:16.495Z,93.53
2022-12-25T16:41:46.625Z,93.67
2022-12-25T16:44:18.368Z,93.89
2022-12-25T16:46:48.602Z,94.08
2022-12-25T16:49:20.298Z,94.18
2022-12-25T16:51:50.471Z,94.44
2022-12-25T16:54:22.150Z,94.44
2022-12-25T16:56:52.552Z,94.12
2022-12-25T16:59:24.208Z,93.50
2022-12-25T17:01:57.369Z,93.54
2022-12-25T17:04:29.641Z,93.88
2022-12-25T17:07:01.357Z,94.25
2022-12-25T17:09:31.636Z,94.25
2022-12-25T17:12:03.319Z,94.33
2022-12-25T17:14:34.133Z,94.05
2022-12-25T17:17:05.944Z,94.22
2022-12-25T17:19:40.151Z,93.88
2022-12-25T17:22:11.926Z,93.40
2022-12-25T17:24:43.729Z,92.64
2022-12-25T17:27:15.448Z,92.85
2022-12-25T17:29:48.543Z,93.29
2022-12-25T17:32:20.269Z,93.76
2022-12-25T17:34:50.424Z,94.00
2022-12-25T17:37:22.062Z,94.45
2022-12-25T17:39:53.883Z,94.50
2022-12-25T17:42:24.046Z,94.16
2022-12-25T17:44:57.360Z,93.93
2022-12-25T17:47:30.273Z,93.71
2022-12-25T17:50:01.996Z,93.86
2022-12-25T17:52:34.536Z,94.10
2022-12-25T17:55:08.530Z,94.13
2022-12-25T17:57:41.363Z,94.22
2022-12-25T18:00:16.435Z,94.44
2022-12-25T18:02:48.237Z,94.45
2022-12-25T18:05:20.228Z,94.19
2022-12-25T18:07:51.877Z,94.20
2022-12-25T18:10:22.054Z,94.26
2022-12-25T18:12:53.691Z,94.39
2022-12-25T18:15:23.835Z,94.48
2022-12-25T18:17:55.738Z,94.74
2022-12-25T18:20:31.804Z,94.60
2022-12-25T18:23:06.210Z,93.92
2022-12-25T18:25:40.432Z,93.60
2022-12-25T18:28:13.158Z,93.86
2022-12-25T18:30:46.404Z,94.44
2022-12-25T18:33:18.102Z,94.70
2022-12-25T18:35:50.809Z,95.07
2022-12-25T18:38:22.498Z,94.86
2022-12-25T18:40:53.084Z,94.28
2022-12-25T18:43:53.737Z,94.59
2022-12-25T18:46:15.605Z,95.16
2022-12-25T18:48:47.626Z,95.84
2022-12-25T18:51:19.451Z,96.09
2022-12-25T18:53:51.291Z,96.19
2022-12-25T18:56:24.556Z,96.14
2022-12-25T18:58:54.728Z,96.17
2022-12-25T19:01:26.948Z,96.25
2022-12-25T19:04:04.375Z,96.09
2022-12-25T19:06:37.068Z,95.99
2022-12-25T19:09:09.732Z,96.08
2022-12-25T19:11:46.332Z,96.28
2022-12-25T19:14:18.699Z,95.53
2022-12-25T19:16:49.051Z,94.98
2022-12-25T19:19:21.252Z,94.98
2022-12-25T19:21:55.791Z,95.52
2022-12-25T19:24:27.867Z,95.31
2022-12-25T19:26:59.654Z,95.47
2022-12-25T19:29:31.548Z,95.55
2022-12-25T19:32:03.370Z,95.63
2022-12-25T19:34:37.331Z,95.89
2022-12-25T19:37:09.269Z,96.03
2022-12-25T19:39:46.919Z,96.11
2022-12-25T19:42:19.415Z,96.05
2022-12-25T19:44:51.487Z,96.03
2022-12-25T19:47:28.741Z,96.27
2022-12-25T19:50:03.336Z,96.38
2022-12-25T19:52:36.278Z,95.74
2022-12-25T19:55:11.036Z,95.83
2022-12-25T19:57:44.246Z,95.57
2022-12-25T20:00:19.126Z,95.39
2022-12-25T20:02:53.147Z,95.49
2022-12-25T20:05:25.714Z,95.56
2022-12-25T20:07:59.114Z,95.62
2022-12-25T20:10:33.077Z,95.75
2022-12-25T20:13:06.348Z,95.83
2022-12-25T20:15:40.640Z,95.93
2022-12-25T20:18:13.593Z,95.64
2022-12-25T20:20:49.277Z,95.85
2022-12-25T20:23:24.437Z,95.86
2022-12-25T20:25:59.695Z,96.03
2022-12-25T20:28:34.559Z,96.03
2022-12-25T20:31:10.435Z,96.04
2022-12-25T20:33:42.748Z,95.74
2022-12-25T20:36:15.074Z,95.93
2022-12-25T20:38:46.807Z,95.41
2022-12-25T20:41:26.872Z,95.38
2022-12-25T20:44:01.817Z,95.47
2022-12-25T20:46:34.043Z,95.83
2022-12-25T20:49:06.518Z,96.65
2022-12-25T20:51:40.734Z,96.77
2022-12-25T20:54:14.862Z,96.39
2022-12-25T20:56:46.668Z,96.43
2022-12-25T20:59:18.468Z,96.40
2022-12-25T21:01:50.708Z,96.33
2022-12-25T21:04:22.502Z,96.26
2022-12-25T21:06:53.749Z,96.60
2022-12-25T21:09:25.790Z,96.96
2022-12-25T21:11:57.541Z,97.15
2022-12-25T21:14:30.358Z,96.88
2022-12-25T21:17:02.078Z,96.38
2022-12-25T21:19:34.118Z,96.30
2022-12-25T21:22:05.780Z,96.09
2022-12-25T21:24:36.353Z,96.08
2022-12-25T21:27:08.139Z,95.99
2022-12-25T21:29:40.393Z,95.66
2022-12-25T21:32:29.508Z,95.50
2022-12-25T21:35:01.194Z,95.88
2022-12-25T21:37:33.669Z,95.79
2022-12-25T21:40:06.785Z,96.08
2022-12-25T21:42:40.712Z,96.25
2022-12-25T21:45:11.171Z,96.34
2022-12-25T21:48:02.447Z,96.65
2022-12-25T21:50:52.358Z,96.92
2022-12-25T21:53:25.161Z,96.36
2022-12-25T21:56:02.233Z,96.31
2022-12-25T21:58:34.023Z,96.44
2022-12-25T22:01:06.503Z,96.01
2022-12-25T22:03:38.395Z,95.76
2022-12-25T22:06:27.497Z,95.78
2022-12-25T22:08:59.279Z,95.99
2022-12-25T22:11:48.612Z,96.43
2022-12-25T22:14:51.145Z,96.44
2022-12-25T22:17:43.473Z,96.54
2022-12-25T22:20:17.532Z,96.59
2022-12-25T22:22:49.784Z,96.49
2022-12-25T22:25:22.005Z,96.25
2022-12-25T22:27:54.254Z,96.27
2022-12-25T22:30:27.709Z,96.55
2022-12-25T22:32:59.683Z,96.52
2022-12-25T22:35:31.374Z,96.52
2022-12-25T22:38:01.514Z,96.42
2022-12-25T22:40:33.432Z,96.71
2022-12-25T22:43:05.112Z,96.72
2022-12-25T22:45:35.234Z,96.64
2022-12-25T22:48:07.568Z,96.75
2022-12-25T22:50:39.278Z,96.79
2022-12-25T22:53:09.467Z,96.83
2022-12-25T22:55:45.895Z,96.95
2022-12-25T22:58:17.849Z,96.57
2022-12-25T23:00:49.812Z,96.50
2022-12-25T23:03:20.074Z,96.25
2022-12-25T23:05:57.097Z,96.45
2022-12-25T23:08:29.127Z,96.41
2022-12-25T23:11:06.370Z,96.40
2022-12-25T23:14:10.461Z,96.36
2022-12-25T23:16:42.157Z,96.59
2022-12-25T23:19:33.965Z,96.78
2022-12-25T23:22:22.938Z,96.06
2022-12-25T23:25:12.183Z,96.32
2022-12-25T23:27:44.328Z,96.18
2022-12-25T23:30:17.744Z,96.04
2022-12-25T23:32:49.625Z,96.18
2022-12-25T23:35:21.583Z,96.19
2022-12-25T23:37:55.296Z,95.90
2022-12-25T23:40:26.942Z,95.91
2022-12-25T23:42:57.056Z,96.18
2022-12-25T23:45:28.733Z,95.93
2022-12-25T23:47:58.905Z,95.92
2022-12-25T23:50:30.645Z,96.05
2022-12-25T23:53:02.305Z,95.96
2022-12-25T23:55:35.458Z,96.00
2022-12-25T23:58:07.398Z,95.83
